Map

Track Data

SID SEASON NUMBER BASIN SUBBASIN NAME ISO_TIME NATURE LAT LON WMO_WIND WMO_PRES WMO_AGENCY TRACK_TYPE DIST2LAND LANDFALL IFLAG USA_AGENCY USA_ATCF_ID USA_LAT USA_LON USA_RECORD USA_STATUS USA_WIND USA_PRES USA_SSHS USA_R34_NE USA_R34_SE USA_R34_SW USA_R34_NW USA_R50_NE USA_R50_SE USA_R50_SW USA_R50_NW USA_R64_NE USA_R64_SE USA_R64_SW USA_R64_NW USA_POCI USA_ROCI USA_RMW USA_EYE TOKYO_LAT TOKYO_LON TOKYO_GRADE TOKYO_WIND TOKYO_PRES TOKYO_R50_DIR TOKYO_R50_LONG TOKYO_R50_SHORT TOKYO_R30_DIR TOKYO_R30_LONG TOKYO_R30_SHORT TOKYO_LAND CMA_LAT CMA_LON CMA_CAT CMA_WIND CMA_PRES HKO_LAT HKO_LON HKO_CAT HKO_WIND HKO_PRES NEWDELHI_LAT NEWDELHI_LON NEWDELHI_GRADE NEWDELHI_WIND NEWDELHI_PRES NEWDELHI_CI NEWDELHI_DP NEWDELHI_POCI REUNION_LAT REUNION_LON REUNION_TYPE REUNION_WIND REUNION_PRES REUNION_TNUM REUNION_CI REUNION_RMW REUNION_R34_NE REUNION_R34_SE REUNION_R34_SW REUNION_R34_NW REUNION_R50_NE REUNION_R50_SE REUNION_R50_SW REUNION_R50_NW REUNION_R64_NE REUNION_R64_SE REUNION_R64_SW REUNION_R64_NW BOM_LAT BOM_LON BOM_TYPE BOM_WIND BOM_PRES BOM_TNUM BOM_CI BOM_RMW BOM_R34_NE BOM_R34_SE BOM_R34_SW BOM_R34_NW BOM_R50_NE BOM_R50_SE BOM_R50_SW BOM_R50_NW BOM_R64_NE BOM_R64_SE BOM_R64_SW BOM_R64_NW BOM_ROCI BOM_POCI BOM_EYE BOM_POS_METHOD BOM_PRES_METHOD NADI_LAT NADI_LON NADI_CAT NADI_WIND NADI_PRES WELLINGTON_LAT WELLINGTON_LON WELLINGTON_WIND WELLINGTON_PRES DS824_LAT DS824_LON DS824_STAGE DS824_WIND DS824_PRES TD9636_LAT TD9636_LON TD9636_STAGE TD9636_WIND TD9636_PRES TD9635_LAT TD9635_LON TD9635_WIND TD9635_PRES TD9635_ROCI NEUMANN_LAT NEUMANN_LON NEUMANN_CLASS NEUMANN_WIND NEUMANN_PRES MLC_LAT MLC_LON MLC_CLASS MLC_WIND MLC_PRES USA_GUST BOM_GUST BOM_GUST_PER REUNION_GUST REUNION_GUST_PER USA_SEAHGT USA_SEARAD_NE USA_SEARAD_SE USA_SEARAD_SW USA_SEARAD_NW STORM_SPEED STORM_DIR
1938269N14091 1938 52 NI BB NOT_NAMED 1938-09-26 00:00:00 TS 13.9000 91.4000 main 381 375 _________O____ -1 13.9000 91.4000 TC 30 5 333
1938269N14091 1938 52 NI BB NOT_NAMED 1938-09-26 03:00:00 TS 14.1383 91.2734 main 377 370 _________PO___ -1 14.2575 91.2101 TC 30 13.9000 91.4000 1 6 330
1938269N14091 1938 52 NI BB NOT_NAMED 1938-09-26 06:00:00 TS 14.4558 91.0671 main 372 372 _________OP___ -1 14.6000 91.0000 TC 30 14.2395 91.1678 1 8 326
1938269N14091 1938 52 NI BB NOT_NAMED 1938-09-26 09:00:00 TS 14.7685 90.8349 main 388 384 _________PP___ -1 14.9150 90.7575 TC 30 14.5731 90.9382 1 7 323
1938269N14091 1938 52 NI BB NOT_NAMED 1938-09-26 12:00:00 TS 15.0476 90.6072 main 401 398 _________OP___ -1 15.2000 90.5000 TC 30 14.8951 90.7144 1 7 322
1938269N14091 1938 52 NI BB NOT_NAMED 1938-09-26 15:00:00 TS 15.3325 90.3787 main 414 412 _________PO___ -1 15.4649 90.2574 TC 30 15.2000 90.5000 1 7 321
1938269N14091 1938 52 NI BB NOT_NAMED 1938-09-26 18:00:00 TS 15.5908 90.1460 main 441 440 _________OP___ -1 15.7000 90.0000 TC 30 15.4815 90.2920 1 7 317
1938269N14091 1938 52 NI BB NOT_NAMED 1938-09-26 21:00:00 TS 15.8268 89.9073 main 460 460 _________PP___ -1 15.9222 89.7524 TC 30 15.7314 90.0623 1 7 309
1938269N14091 1938 52 NI BB NOT_NAMED 1938-09-27 00:00:00 TS 16.0203 89.5882 main 491 491 _________OP___ -1 16.1000 89.4000 TC 30 15.9406 89.7764 1 8 294
1938269N14091 1938 52 NI BB NOT_NAMED 1938-09-27 03:00:00 TS 16.1651 89.1225 main 512 474 _________PO___ -1 16.2301 88.8450 TC 30 16.1000 89.4000 1 10 283
1938269N14091 1938 52 NI BB NOT_NAMED 1938-09-27 06:00:00 TS 16.2586 88.5406 main 469 447 _________OP___ -1 16.3000 88.2000 TC 30 16.2173 88.8812 1 12 277
1938269N14091 1938 52 NI BB NOT_NAMED 1938-09-27 09:00:00 TS 16.3030 87.9337 main 443 400 _________PP___ -1 16.3224 87.5924 TC 30 16.2835 88.2749 1 12 272
1938269N14091 1938 52 NI BB NOT_NAMED 1938-09-27 12:00:00 TS 16.3039 87.3156 main 400 354 _________OP___ -1 16.3000 87.0000 TC 30 16.3078 87.6312 1 12 269
1938269N14091 1938 52 NI BB NOT_NAMED 1938-09-27 15:00:00 TS 16.2787 86.7175 main 354 323 _________PO___ -1 16.2574 86.4350 TC 30 16.3000 87.0000 1 11 267
1938269N14091 1938 52 NI BB NOT_NAMED 1938-09-27 18:00:00 TS 16.2392 86.1684 main 323 290 _________OP___ -1 16.2000 85.9000 TC 30 16.2783 86.4369 1 10 265
1938269N14091 1938 52 NI BB NOT_NAMED 1938-09-27 21:00:00 TS 16.1897 85.6373 main 283 267 _________PP___ -1 16.1499 85.3775 TC 30 16.2295 85.8971 1 10 264
1938269N14091 1938 52 NI BB NOT_NAMED 1938-09-28 00:00:00 TS 16.1330 85.1419 main 262 231 _________OP___ -1 16.1000 84.9000 TC 30 16.1660 85.3838 1 9 263
1938269N14091 1938 52 NI BB NOT_NAMED 1938-09-28 03:00:00 TS 16.0749 84.6963 main 231 213 _________PO___ -1 16.0498 84.4925 TC 30 16.1000 84.9000 1 8 262
1938269N14091 1938 52 NI BB NOT_NAMED 1938-09-28 06:00:00 TS 16.0186 84.2751 main 213 183 _________OP___ -1 16.0000 84.1000 TC 30 16.0372 84.4503 1 8 262
1938269N14091 1938 52 NI BB NOT_NAMED 1938-09-28 09:00:00 TS 15.9596 83.8424 main 173 141 _________PP___ -1 15.9425 83.6575 TC 30 15.9767 84.0274 1 8 263
1938269N14091 1938 52 NI BB NOT_NAMED 1938-09-28 12:00:00 TS 15.9139 83.4079 main 141 108 _________OP___ -1 15.9000 83.2000 TC 30 15.9279 83.6158 1 8 265
1938269N14091 1938 52 NI BB NOT_NAMED 1938-09-28 15:00:00 TS 15.8925 82.9750 main 108 79 _________PO___ -1 15.8849 82.7500 TC 30 15.9000 83.2000 1 9 269
1938269N14091 1938 52 NI BB NOT_NAMED 1938-09-28 18:00:00 TS 15.8997 82.5185 main 79 59 _________OP___ -1 15.9000 82.3000 TC 30 15.8994 82.7371 1 9 273
1938269N14091 1938 52 NI BB NOT_NAMED 1938-09-28 21:00:00 TS 15.9313 82.0526 main 59 33 _________PP___ -1 15.9425 81.8350 TC 30 15.9201 82.2702 1 9 275
1938269N14091 1938 52 NI BB NOT_NAMED 1938-09-29 00:00:00 TS 15.9779 81.6091 main 35 0 _________OP___ -1 16.0000 81.4000 TC 30 15.9557 81.8183 1 8 277
1938269N14091 1938 52 NI BB NOT_NAMED 1938-09-29 03:00:00 TS 16.0249 81.2137 main 0 0 _________PO___ -1 16.0499 81.0275 TC 30 16.0000 81.4000 1 7 277
1938269N14091 1938 52 NI BB NOT_NAMED 1938-09-29 06:00:00 TS 16.0651 80.8674 main 0 0 _________OP___ -1 16.1000 80.7000 TC 30 16.0302 81.0349 1 6 277
1938269N14091 1938 52 NI BB NOT_NAMED 1938-09-29 09:00:00 TS 16.1060 80.5486 main 0 0 _________PP___ -1 16.1424 80.3924 TC 30 16.0695 80.7048 1 6 279
1938269N14091 1938 52 NI BB NOT_NAMED 1938-09-29 12:00:00 TS 16.1620 80.2487 main 0 0 _________OP___ -1 16.2000 80.1000 TC 30 16.1240 80.3973 1 6 283
1938269N14091 1938 52 NI BB NOT_NAMED 1938-09-29 15:00:00 TS 16.2425 79.9500 main 0 0 _________PO___ -1 16.2850 79.8000 TC 30 16.2000 80.1000 1 6 288
1938269N14091 1938 52 NI BB NOT_NAMED 1938-09-29 18:00:00 TS 16.3536 79.6505 main 0 0 _________OP___ -1 16.4000 79.5000 TC 30 16.3072 79.8010 1 6 294
1938269N14091 1938 52 NI BB NOT_NAMED 1938-09-29 21:00:00 TS 16.4923 79.3575 main 0 0 _________PP___ -1 16.5499 79.2075 TC 30 16.4346 79.5075 1 6 296
1938269N14091 1938 52 NI BB NOT_NAMED 1938-09-30 00:00:00 TS 16.6349 79.0552 main 0 0 _________OP___ -1 16.7000 78.9000 TC 30 16.5697 79.2103 1 7 293
1938269N14091 1938 52 NI BB NOT_NAMED 1938-09-30 03:00:00 TS 16.7537 78.7287 main 0 0 _________PO___ -1 16.8075 78.5574 TC 30 16.7000 78.9000 1 7 289
1938269N14091 1938 52 NI BB NOT_NAMED 1938-09-30 06:00:00 TS 16.8515 78.3821 main 0 0 _________OP___ -1 16.9000 78.2000 TC 30 16.8031 78.5642 1 7 286
1938269N14091 1938 52 NI BB NOT_NAMED 1938-09-30 09:00:00 TS 16.9462 78.0323 main 0 0 _________PP___ -1 16.9924 77.8499 TC 30 16.8999 78.2147 1 7 286
1938269N14091 1938 52 NI AS NOT_NAMED 1938-09-30 12:00:00 TS 17.0484 77.6790 main 0 0 _________OP___ -1 17.1000 77.5000 TC 30 16.9968 77.8579 1 7 289
1938269N14091 1938 52 NI AS NOT_NAMED 1938-09-30 15:00:00 TS 17.1750 77.3250 main 0 0 _________PO___ -1 17.2499 77.1500 TC 30 17.1000 77.5000 1 7 291
1938269N14091 1938 52 NI AS NOT_NAMED 1938-09-30 18:00:00 TS 17.3108 76.9811 main 0 0 _________OP___ -1 17.4000 76.8000 TC 30 17.2215 77.1621 1 7 291
1938269N14091 1938 52 NI AS NOT_NAMED 1938-09-30 21:00:00 TS 17.4285 76.6399 main 0 0 _________PP___ -1 17.5074 76.4574 TC 30 17.3495 76.8224 1 7 289
1938269N14091 1938 52 NI AS NOT_NAMED 1938-10-01 00:00:00 TS 17.5389 76.2857 main 0 0 _________OP___ -1 17.6000 76.1000 TC 30 17.4777 76.4715 1 7 288
1938269N14091 1938 52 NI AS NOT_NAMED 1938-10-01 03:00:00 TS 17.6500 75.9075 main 0 0 _________PO___ -1 17.6999 75.7150 TC 30 17.6000 76.1000 1 8 286
1938269N14091 1938 52 NI AS NOT_NAMED 1938-10-01 06:00:00 TS 17.7577 75.4942 main 0 0 _________OP___ -1 17.8000 75.3000 TC 30 17.7154 75.6884 1 8 285
1938269N14091 1938 52 NI AS NOT_NAMED 1938-10-01 09:00:00 TS 17.8651 75.0500 main 0 0 _________PP___ -1 17.9075 74.8425 TC 30 17.8226 75.2575 1 9 283
1938269N14091 1938 52 NI AS NOT_NAMED 1938-10-01 12:00:00 TS 17.9592 74.6114 main 0 0 _________OP___ -1 18.0000 74.4000 TC 30 17.9185 74.8228 1 8 282
1938269N14091 1938 52 NI AS NOT_NAMED 1938-10-01 15:00:00 TS 18.0287 74.2212 main 0 0 _________PO___ -1 18.0573 74.0424 TC 30 18.0000 74.4000 1 7 280
1938269N14091 1938 52 NI AS NOT_NAMED 1938-10-01 18:00:00 TS 18.0841 73.8471 main 0 0 _________OP___ -1 18.1000 73.7000 TC 30 18.0683 73.9942 1 7 279
1938269N14091 1938 52 NI AS NOT_NAMED 1938-10-01 21:00:00 TS 18.1399 73.4487 main 0 0 _________PP___ -1 18.1575 73.2925 TC 30 18.1223 73.6048 1 7 278
1938269N14091 1938 52 NI AS NOT_NAMED 1938-10-02 00:00:00 TS 18.1826 73.0690 main 0 0 _________OP___ -1 18.2000 72.9000 TC 30 18.1652 73.2380 1 7 275
1938269N14091 1938 52 NI AS NOT_NAMED 1938-10-02 03:00:00 TS 18.2000 72.7387 main 21 21 _________PO___ -1 18.1999 72.5774 TC 30 18.2000 72.9000 1 6 273
1938269N14091 1938 52 NI AS NOT_NAMED 1938-10-02 06:00:00 TS 18.2119 72.4460 main 52 52 _________OP___ -1 18.2000 72.3000 TC 30 18.2237 72.5920 1 5 275
1938269N14091 1938 52 NI AS NOT_NAMED 1938-10-02 09:00:00 TS 18.2423 72.1774 main 73 73 _________PP___ -1 18.2424 72.0425 TC 30 18.2421 72.3123 1 5 278
1938269N14091 1938 52 NI AS NOT_NAMED 1938-10-02 12:00:00 TS 18.2822 71.9257 main 105 105 _________OP___ -1 18.3000 71.8000 TC 30 18.2644 72.0514 1 5 279
1938269N14091 1938 52 NI AS NOT_NAMED 1938-10-02 15:00:00 TS 18.3212 71.6750 main 126 126 _________PO___ -1 18.3425 71.5500 TC 30 18.3000 71.8000 1 5 281
1938269N14091 1938 52 NI AS NOT_NAMED 1938-10-02 18:00:00 TS 18.3783 71.4032 main 157 157 _________OP___ -1 18.4000 71.3000 TC 30 18.3567 71.5064 1 5 285
1938269N14091 1938 52 NI AS NOT_NAMED 1938-10-02 21:00:00 TS 18.4601 71.1226 main 184 184 _________PP___ -1 18.4925 71.0201 TC 30 18.4277 71.2252 1 5 290
1938269N14091 1938 52 NI AS NOT_NAMED 1938-10-03 00:00:00 TS 18.5549 70.8907 main 202 202 _________OP___ -1 18.6000 70.8000 TC 30 18.5098 70.9814 1 4 299
1938269N14091 1938 52 NI AS NOT_NAMED 1938-10-03 03:00:00 TS 18.6500 70.7562 main 213 211 _________PO___ -1 18.6999 70.7125 TC 30 18.6000 70.8000 1 3 316
1938269N14091 1938 52 NI AS NOT_NAMED 1938-10-03 06:00:00 TS 18.7443 70.6970 main 222 212 _________OP___ -1 18.8000 70.7000 TC 30 18.6885 70.6940 1 2 337
1938269N14091 1938 52 NI AS NOT_NAMED 1938-10-03 09:00:00 TS 18.8386 70.6687 main 212 201 _________PP___ -1 18.8925 70.6850 TC 30 18.7847 70.6524 1 2 353
1938269N14091 1938 52 NI AS NOT_NAMED 1938-10-03 12:00:00 TS 18.9443 70.6798 main 201 179 _________OP___ -1 19.0000 70.7000 TC 30 18.8886 70.6597 1 2 11
1938269N14091 1938 52 NI AS NOT_NAMED 1938-10-03 15:00:00 TS 19.0750 70.7175 main 179 167 _________PO___ -1 19.1500 70.7350 TC 30 19.0000 70.7000 1 3 17
1938269N14091 1938 52 NI AS NOT_NAMED 1938-10-03 18:00:00 TS 19.2150 70.7670 main 167 156 _________OP___ -1 19.3000 70.8000 TC 30 19.1300 70.7340 1 3 24
1938269N14091 1938 52 NI AS NOT_NAMED 1938-10-03 21:00:00 TS 19.3400 70.8412 main 156 145 _________PP___ -1 19.4150 70.8850 TC 30 19.2649 70.7974 1 3 36
1938269N14091 1938 52 NI AS NOT_NAMED 1938-10-04 00:00:00 TS 19.4462 70.9436 main 145 134 _________OP___ -1 19.5000 71.0000 TC 30 19.3925 70.8871 1 3 49
1938269N14091 1938 52 NI AS NOT_NAMED 1938-10-04 03:00:00 TS 19.5288 71.0713 main 137 126 _________PO___ -1 19.5575 71.1425 TC 30 19.5000 71.0000 1 3 61
1938269N14091 1938 52 NI AS NOT_NAMED 1938-10-04 06:00:00 TS 19.5878 71.2102 main 129 129 _________OP___ -1 19.6000 71.3000 TC 30 19.5756 71.1204 1 3 67
1938269N14091 1938 52 NI AS NOT_NAMED 1938-10-04 09:00:00 TS 19.6400 71.3525 main 136 125 _________PP___ -1 19.6500 71.4425 TC 30 19.6300 71.2626 1 3 71
1938269N14091 1938 52 NI AS NOT_NAMED 1938-10-04 12:00:00 TS 19.6847 71.5117 main 125 104 _________OP___ -1 19.7000 71.6000 TC 30 19.6693 71.4235 1 3 75
1938269N14091 1938 52 NI AS NOT_NAMED 1938-10-04 15:00:00 TS 19.7288 71.6962 main 104 83 _________PO___ -1 19.7575 71.7925 TC 30 19.7000 71.6000 1 4 77
1938269N14091 1938 52 NI AS NOT_NAMED 1938-10-04 18:00:00 TS 19.7682 71.8969 main 83 62 _________OP___ -1 19.8000 72.0000 TC 30 19.7363 71.7938 1 4 81
1938269N14091 1938 52 NI AS NOT_NAMED 1938-10-04 21:00:00 TS 19.7863 72.1038 main 62 41 _________PP___ -1 19.8075 72.2075 TC 30 19.7651 72.0000 1 4 86
1938269N14091 1938 52 NI AS NOT_NAMED 1938-10-05 00:00:00 TS 19.7932 72.3031 main 41 20 _________OP___ -1 19.8000 72.4000 TC 30 19.7863 72.2062 1 4 88
1938269N14091 1938 52 NI AS NOT_NAMED 1938-10-05 03:00:00 TS 19.8000 72.4787 main 20 10 _________PO___ -1 19.8000 72.5575 TC 30 19.8000 72.4000 1 3 88
1938269N14091 1938 52 NI AS NOT_NAMED 1938-10-05 06:00:00 TS 19.8035 72.6281 main 10 0 _________OP___ -1 19.8000 72.7000 TC 30 19.8070 72.5563 1 3 89
1938269N14091 1938 52 NI AS NOT_NAMED 1938-10-05 09:00:00 TS 19.8036 72.7675 main 0 0 _________PP___ -1 19.7999 72.8350 TC 30 19.8073 72.7001 1 3 90
1938269N14091 1938 52 NI AS NOT_NAMED 1938-10-05 12:00:00 TS 19.8020 72.9219 main 0 0 _________OP___ -1 19.8000 73.0000 TC 30 19.8039 72.8438 1 3 91
1938269N14091 1938 52 NI AS NOT_NAMED 1938-10-05 15:00:00 TS 19.8000 73.1250 main 0 0 _________PO___ -1 19.8001 73.2500 TC 30 19.8000 73.0000 1 4 90
1938269N14091 1938 52 NI AS NOT_NAMED 1938-10-05 18:00:00 TS 19.7989 73.3161 main 0 0 _________OP___ -1 19.8000 73.5000 TC 30 19.7980 73.1781 1 3 90
1938269N14091 1938 52 NI AS NOT_NAMED 1938-10-05 21:00:00 TS 19.7987 73.4950 main 0 0 _________PP___ -1 19.8000 73.6750 TC 30 19.7978 73.3750 1 3 90
1938269N14091 1938 52 NI AS NOT_NAMED 1938-10-06 00:00:00 TS 19.7991 73.6562 main 0 0 _________OP___ -1 19.8000 73.8000 TC 30 19.7987 73.5844 1 3 90
1938269N14091 1938 52 NI AS NOT_NAMED 1938-10-06 03:00:00 NR 19.8000 73.8000 main 0 __________O___ -1 TC 19.8000 73.8000 1 3 90

About IBTrACS Database

This database is a web-friendly format of International Best Track Archive for Climate Stewardship (IBTrACS), a global best track data archive curated by NOAA dating back to 1842.

Updated: 2021-12-01